This is the latest recevied weather packets stored in our database for station/object WK7G. If no packets are shown the sender has not sent any weather packets the latest 10 day(s).
| Time | Temp. | Humidity | Pressure | Rain* | Wind** | Luminosity | Snow |
|---|---|---|---|---|---|---|---|
| 1777456583 | -0.56° C | 76% | 1013.5 hPa | 0 mm | - | 0 W/m² | - |
| 1777455672 | 0° C | 74% | 1013.5 hPa | 0 mm | - | 0 W/m² | - |
| 1777455369 | 0° C | 72% | 1013.5 hPa | 0 mm | - | 0 W/m² | - |
| 1777455066 | 0° C | 72% | 1013.4 hPa | 0 mm | - | 0 W/m² | - |
| 1777454763 | -1.11° C | 77% | 1013.1 hPa | 0 mm | - | 0 W/m² | - |
| 1777454458 | -1.11° C | 77% | 1013.3 hPa | 0 mm | - | 0 W/m² | - |
| 1777454155 | -1.11° C | 75% | 1013.4 hPa | 0 mm | - | 0 W/m² | - |
| 1777453852 | -1.11° C | 75% | 1013.3 hPa | 0 mm | - | 0 W/m² | - |
| 1777453549 | 0° C | 73% | 1013.4 hPa | 0 mm | - | 0 W/m² | - |
| 1777453245 | 0° C | 71% | 1013 hPa | 0 mm | - | 0 W/m² | - |
| 1777452943 | 0.56° C | 69% | 1013.1 hPa | 0 mm | - | 0 W/m² | - |
| 1777452640 | 0.56° C | 69% | 1013.4 hPa | 0 mm | - | 0 W/m² | - |
| 1777452032 | 0.56° C | 69% | 1013.3 hPa | 0 mm | - | 0 W/m² | - |
| 1777451727 | 1.11° C | 67% | 1013.4 hPa | 0 mm | - | 0 W/m² | - |
| 1777451423 | 1.11° C | 66% | 1013.4 hPa | 0 mm | - | 0 W/m² | - |
| 1777451119 | 1.11° C | 67% | 1013.5 hPa | 0 mm | - | 0 W/m² | - |
| 1777450815 | 1.11° C | 67% | 1013.4 hPa | 0 mm | - | 0 W/m² | - |
| 1777450510 | 1.11° C | 68% | 1013.4 hPa | 0 mm | - | 0 W/m² | - |
| 1777450208 | 1.67° C | 65% | 1013.1 hPa | 0 mm | - | 0 W/m² | - |
| 1777449903 | 1.11° C | 65% | 1013.4 hPa | 0 mm | - | 0 W/m² | - |
| 1777449600 | 1.11° C | 67% | 1013.5 hPa | 0 mm | - | 0 W/m² | - |
| 1777449295 | 1.11° C | 68% | 1013.3 hPa | 0 mm | - | 0 W/m² | - |
| 1777448385 | 0° C | 71% | 1013.3 hPa | 0 mm | - | 0 W/m² | - |
| 1777448081 | 0° C | 74% | 1013.4 hPa | 0 mm | - | 0 W/m² | - |
| 1777447777 | 0° C | 72% | 1013.3 hPa | 0 mm | - | 0 W/m² | - |
* Rain latest hour (hover to see other rain measurements)
** Current wind speed in m/s (hover to see current wind gust speed)